sensor_id;sensor_type;location;lat;lon;timestamp;P1;durP1;ratioP1;P2;durP2;ratioP2
58581;SDS011;44361;51.476;5.700;2023-08-31T00:01:08;8.00;;;3.03;;
58581;SDS011;44361;51.476;5.700;2023-08-31T00:03:34;6.78;;;2.63;;
58581;SDS011;44361;51.476;5.700;2023-08-31T00:06:03;7.20;;;2.92;;
58581;SDS011;44361;51.476;5.700;2023-08-31T00:08:29;4.30;;;3.30;;
58581;SDS011;44361;51.476;5.700;2023-08-31T00:10:56;10.32;;;3.35;;
58581;SDS011;44361;51.476;5.700;2023-08-31T00:13:22;5.47;;;3.47;;
58581;SDS011;44361;51.476;5.700;2023-08-31T00:15:48;6.18;;;3.78;;
58581;SDS011;44361;51.476;5.700;2023-08-31T00:18:13;6.47;;;3.42;;
58581;SDS011;44361;51.476;5.700;2023-08-31T00:20:41;8.65;;;4.25;;
58581;SDS011;44361;51.476;5.700;2023-08-31T00:23:07;7.13;;;3.63;;
58581;SDS011;44361;51.476;5.700;2023-08-31T00:25:33;7.75;;;3.75;;
58581;SDS011;44361;51.476;5.700;2023-08-31T00:27:58;5.50;;;4.10;;
58581;SDS011;44361;51.476;5.700;2023-08-31T00:30:32;6.88;;;4.05;;
58581;SDS011;44361;51.476;5.700;2023-08-31T00:32:58;6.55;;;4.22;;
58581;SDS011;44361;51.476;5.700;2023-08-31T00:35:26;8.98;;;4.53;;
58581;SDS011;44361;51.476;5.700;2023-08-31T00:37:53;8.45;;;4.70;;
58581;SDS011;44361;51.476;5.700;2023-08-31T00:40:24;9.70;;;4.50;;
58581;SDS011;44361;51.476;5.700;2023-08-31T00:42:49;8.60;;;5.00;;
58581;SDS011;44361;51.476;5.700;2023-08-31T00:45:15;8.88;;;5.07;;
58581;SDS011;44361;51.476;5.700;2023-08-31T00:47:41;9.70;;;5.28;;
58581;SDS011;44361;51.476;5.700;2023-08-31T00:50:07;10.95;;;5.40;;
58581;SDS011;44361;51.476;5.700;2023-08-31T00:52:33;8.65;;;5.00;;
58581;SDS011;44361;51.476;5.700;2023-08-31T00:54:59;8.35;;;5.35;;
58581;SDS011;44361;51.476;5.700;2023-08-31T00:57:30;13.20;;;5.85;;
58581;SDS011;44361;51.476;5.700;2023-08-31T00:59:56;8.85;;;5.32;;
58581;SDS011;44361;51.476;5.700;2023-08-31T01:02:29;13.65;;;6.30;;
58581;SDS011;44361;51.476;5.700;2023-08-31T01:05:23;8.80;;;5.45;;
58581;SDS011;44361;51.476;5.700;2023-08-31T01:13:28;9.73;;;5.82;;
58581;SDS011;44361;51.476;5.700;2023-08-31T01:15:59;12.77;;;5.97;;
58581;SDS011;44361;51.476;5.700;2023-08-31T01:18:28;9.93;;;5.57;;
58581;SDS011;44361;51.476;5.700;2023-08-31T01:21:11;13.75;;;6.38;;
58581;SDS011;44361;51.476;5.700;2023-08-31T01:23:55;9.95;;;6.13;;
58581;SDS011;44361;51.476;5.700;2023-08-31T01:26:22;10.73;;;6.38;;
58581;SDS011;44361;51.476;5.700;2023-08-31T01:28:49;10.05;;;5.78;;
58581;SDS011;44361;51.476;5.700;2023-08-31T01:31:15;10.10;;;6.47;;
58581;SDS011;44361;51.476;5.700;2023-08-31T01:33:41;12.40;;;6.68;;
58581;SDS011;44361;51.476;5.700;2023-08-31T01:36:12;11.35;;;6.45;;
58581;SDS011;44361;51.476;5.700;2023-08-31T01:38:45;10.95;;;6.63;;
58581;SDS011;44361;51.476;5.700;2023-08-31T01:41:17;13.20;;;7.03;;
58581;SDS011;44361;51.476;5.700;2023-08-31T01:43:46;15.02;;;6.88;;
58581;SDS011;44361;51.476;5.700;2023-08-31T01:46:14;11.98;;;7.05;;
58581;SDS011;44361;51.476;5.700;2023-08-31T01:48:40;11.38;;;7.28;;
58581;SDS011;44361;51.476;5.700;2023-08-31T01:51:07;9.50;;;6.95;;
58581;SDS011;44361;51.476;5.700;2023-08-31T01:53:34;13.05;;;7.28;;
58581;SDS011;44361;51.476;5.700;2023-08-31T01:55:59;16.58;;;7.88;;
58581;SDS011;44361;51.476;5.700;2023-08-31T01:58:25;13.63;;;8.68;;
58581;SDS011;44361;51.476;5.700;2023-08-31T02:00:50;12.38;;;7.82;;
58581;SDS011;44361;51.476;5.700;2023-08-31T02:03:16;15.05;;;8.60;;
58581;SDS011;44361;51.476;5.700;2023-08-31T02:05:42;18.23;;;8.75;;
58581;SDS011;44361;51.476;5.700;2023-08-31T02:08:07;16.15;;;9.52;;
58581;SDS011;44361;51.476;5.700;2023-08-31T02:10:33;16.30;;;9.02;;
58581;SDS011;44361;51.476;5.700;2023-08-31T02:12:59;15.57;;;8.88;;
58581;SDS011;44361;51.476;5.700;2023-08-31T02:15:25;17.70;;;9.57;;
58581;SDS011;44361;51.476;5.700;2023-08-31T02:17:51;17.77;;;9.45;;
58581;SDS011;44361;51.476;5.700;2023-08-31T02:20:17;17.98;;;10.10;;
58581;SDS011;44361;51.476;5.700;2023-08-31T02:22:45;16.92;;;9.60;;
58581;SDS011;44361;51.476;5.700;2023-08-31T02:25:10;16.60;;;9.23;;
58581;SDS011;44361;51.476;5.700;2023-08-31T02:27:37;16.20;;;9.98;;
58581;SDS011;44361;51.476;5.700;2023-08-31T02:30:04;18.63;;;10.50;;
58581;SDS011;44361;51.476;5.700;2023-08-31T02:32:30;19.02;;;9.73;;
58581;SDS011;44361;51.476;5.700;2023-08-31T02:34:55;19.00;;;10.68;;
58581;SDS011;44361;51.476;5.700;2023-08-31T02:37:21;19.13;;;10.18;;
58581;SDS011;44361;51.476;5.700;2023-08-31T02:39:47;21.60;;;10.75;;
58581;SDS011;44361;51.476;5.700;2023-08-31T02:42:13;17.92;;;10.65;;
58581;SDS011;44361;51.476;5.700;2023-08-31T02:44:39;17.15;;;9.82;;
58581;SDS011;44361;51.476;5.700;2023-08-31T02:47:05;16.42;;;10.70;;
58581;SDS011;44361;51.476;5.700;2023-08-31T02:49:31;18.90;;;9.40;;
58581;SDS011;44361;51.476;5.700;2023-08-31T02:52:00;21.40;;;10.73;;
58581;SDS011;44361;51.476;5.700;2023-08-31T02:54:25;18.30;;;10.27;;
58581;SDS011;44361;51.476;5.700;2023-08-31T02:56:51;17.65;;;10.52;;
58581;SDS011;44361;51.476;5.700;2023-08-31T02:59:17;19.42;;;9.57;;
58581;SDS011;44361;51.476;5.700;2023-08-31T03:01:43;22.48;;;10.13;;
58581;SDS011;44361;51.476;5.700;2023-08-31T03:04:11;16.58;;;9.93;;
58581;SDS011;44361;51.476;5.700;2023-08-31T03:06:37;13.18;;;9.13;;
58581;SDS011;44361;51.476;5.700;2023-08-31T03:09:02;21.10;;;10.52;;
58581;SDS011;44361;51.476;5.700;2023-08-31T03:11:38;17.67;;;9.85;;
58581;SDS011;44361;51.476;5.700;2023-08-31T03:14:03;14.30;;;10.02;;
58581;SDS011;44361;51.476;5.700;2023-08-31T03:16:29;18.88;;;10.20;;
58581;SDS011;44361;51.476;5.700;2023-08-31T03:18:55;15.23;;;10.07;;
58581;SDS011;44361;51.476;5.700;2023-08-31T03:21:20;16.63;;;10.80;;
58581;SDS011;44361;51.476;5.700;2023-08-31T03:23:46;16.45;;;10.25;;
58581;SDS011;44361;51.476;5.700;2023-08-31T03:26:12;18.50;;;10.52;;
58581;SDS011;44361;51.476;5.700;2023-08-31T03:28:37;16.42;;;10.45;;
58581;SDS011;44361;51.476;5.700;2023-08-31T03:31:05;17.90;;;11.05;;
58581;SDS011;44361;51.476;5.700;2023-08-31T03:33:30;19.20;;;11.10;;
58581;SDS011;44361;51.476;5.700;2023-08-31T03:35:59;18.35;;;10.82;;
58581;SDS011;44361;51.476;5.700;2023-08-31T03:38:29;26.52;;;11.50;;
58581;SDS011;44361;51.476;5.700;2023-08-31T03:41:02;18.20;;;11.95;;
58581;SDS011;44361;51.476;5.700;2023-08-31T03:43:28;24.00;;;12.18;;
58581;SDS011;44361;51.476;5.700;2023-08-31T03:45:53;23.60;;;12.00;;
58581;SDS011;44361;51.476;5.700;2023-08-31T03:48:23;21.90;;;12.20;;
58581;SDS011;44361;51.476;5.700;2023-08-31T03:50:50;22.48;;;11.73;;
58581;SDS011;44361;51.476;5.700;2023-08-31T03:53:16;23.30;;;12.07;;
58581;SDS011;44361;51.476;5.700;2023-08-31T03:55:42;25.63;;;12.82;;
58581;SDS011;44361;51.476;5.700;2023-08-31T03:58:08;26.98;;;12.25;;
58581;SDS011;44361;51.476;5.700;2023-08-31T04:00:33;20.35;;;12.48;;
58581;SDS011;44361;51.476;5.700;2023-08-31T04:02:59;26.35;;;12.23;;
58581;SDS011;44361;51.476;5.700;2023-08-31T04:05:24;22.98;;;12.85;;
58581;SDS011;44361;51.476;5.700;2023-08-31T04:07:50;25.50;;;12.90;;
58581;SDS011;44361;51.476;5.700;2023-08-31T04:10:15;23.35;;;13.68;;
58581;SDS011;44361;51.476;5.700;2023-08-31T04:12:41;20.67;;;12.73;;
58581;SDS011;44361;51.476;5.700;2023-08-31T04:15:08;22.27;;;12.35;;
58581;SDS011;44361;51.476;5.700;2023-08-31T04:17:34;27.83;;;12.95;;
58581;SDS011;44361;51.476;5.700;2023-08-31T04:19:59;25.90;;;12.90;;
58581;SDS011;44361;51.476;5.700;2023-08-31T04:22:25;20.05;;;12.10;;
58581;SDS011;44361;51.476;5.700;2023-08-31T04:24:51;22.17;;;12.55;;
58581;SDS011;44361;51.476;5.700;2023-08-31T04:27:17;20.27;;;11.90;;
58581;SDS011;44361;51.476;5.700;2023-08-31T04:29:43;20.20;;;11.73;;
58581;SDS011;44361;51.476;5.700;2023-08-31T04:32:08;27.10;;;12.85;;
58581;SDS011;44361;51.476;5.700;2023-08-31T04:34:34;24.77;;;12.02;;
58581;SDS011;44361;51.476;5.700;2023-08-31T04:37:00;22.20;;;12.05;;
58581;SDS011;44361;51.476;5.700;2023-08-31T04:39:26;23.10;;;11.43;;
58581;SDS011;44361;51.476;5.700;2023-08-31T04:41:52;19.52;;;11.13;;
58581;SDS011;44361;51.476;5.700;2023-08-31T04:44:17;19.73;;;11.73;;
58581;SDS011;44361;51.476;5.700;2023-08-31T04:46:43;31.13;;;12.55;;
58581;SDS011;44361;51.476;5.700;2023-08-31T04:49:08;24.92;;;11.85;;
58581;SDS011;44361;51.476;5.700;2023-08-31T04:51:34;23.05;;;12.20;;
58581;SDS011;44361;51.476;5.700;2023-08-31T04:54:02;20.70;;;11.77;;
58581;SDS011;44361;51.476;5.700;2023-08-31T04:56:31;25.75;;;11.82;;
58581;SDS011;44361;51.476;5.700;2023-08-31T04:58:58;26.38;;;12.25;;
58581;SDS011;44361;51.476;5.700;2023-08-31T05:01:24;19.70;;;11.90;;
58581;SDS011;44361;51.476;5.700;2023-08-31T05:03:49;22.85;;;12.05;;
58581;SDS011;44361;51.476;5.700;2023-08-31T05:06:15;22.95;;;12.45;;
58581;SDS011;44361;51.476;5.700;2023-08-31T05:08:40;25.40;;;12.25;;
58581;SDS011;44361;51.476;5.700;2023-08-31T05:11:06;24.85;;;11.77;;
58581;SDS011;44361;51.476;5.700;2023-08-31T05:13:32;22.83;;;11.85;;
58581;SDS011;44361;51.476;5.700;2023-08-31T05:15:58;20.27;;;11.75;;
58581;SDS011;44361;51.476;5.700;2023-08-31T05:18:24;25.52;;;12.23;;
58581;SDS011;44361;51.476;5.700;2023-08-31T05:20:49;23.08;;;12.20;;
58581;SDS011;44361;51.476;5.700;2023-08-31T05:23:15;20.60;;;11.93;;
58581;SDS011;44361;51.476;5.700;2023-08-31T05:25:44;25.40;;;12.38;;
58581;SDS011;44361;51.476;5.700;2023-08-31T05:28:10;27.42;;;12.82;;
58581;SDS011;44361;51.476;5.700;2023-08-31T05:30:35;31.48;;;12.50;;
58581;SDS011;44361;51.476;5.700;2023-08-31T05:33:01;22.60;;;12.07;;
58581;SDS011;44361;51.476;5.700;2023-08-31T05:35:28;20.27;;;11.25;;
58581;SDS011;44361;51.476;5.700;2023-08-31T05:37:54;23.63;;;11.32;;
58581;SDS011;44361;51.476;5.700;2023-08-31T05:40:20;21.48;;;12.30;;
58581;SDS011;44361;51.476;5.700;2023-08-31T05:42:47;21.60;;;10.38;;
58581;SDS011;44361;51.476;5.700;2023-08-31T05:45:13;18.02;;;10.27;;
58581;SDS011;44361;51.476;5.700;2023-08-31T05:47:40;20.33;;;11.10;;
58581;SDS011;44361;51.476;5.700;2023-08-31T05:50:09;17.38;;;10.43;;
58581;SDS011;44361;51.476;5.700;2023-08-31T05:52:34;16.42;;;10.23;;
58581;SDS011;44361;51.476;5.700;2023-08-31T05:55:00;17.38;;;9.77;;
58581;SDS011;44361;51.476;5.700;2023-08-31T05:57:26;18.35;;;9.05;;
58581;SDS011;44361;51.476;5.700;2023-08-31T05:59:52;13.15;;;8.73;;
58581;SDS011;44361;51.476;5.700;2023-08-31T06:02:18;16.67;;;9.00;;
58581;SDS011;44361;51.476;5.700;2023-08-31T06:04:44;17.38;;;9.10;;
58581;SDS011;44361;51.476;5.700;2023-08-31T06:07:09;18.35;;;9.25;;
58581;SDS011;44361;51.476;5.700;2023-08-31T06:09:35;16.98;;;9.02;;
58581;SDS011;44361;51.476;5.700;2023-08-31T06:12:00;15.52;;;8.98;;
58581;SDS011;44361;51.476;5.700;2023-08-31T06:14:26;18.77;;;10.43;;
58581;SDS011;44361;51.476;5.700;2023-08-31T06:16:51;17.73;;;10.10;;
58581;SDS011;44361;51.476;5.700;2023-08-31T06:19:17;17.48;;;8.77;;
58581;SDS011;44361;51.476;5.700;2023-08-31T06:21:43;16.35;;;8.45;;
58581;SDS011;44361;51.476;5.700;2023-08-31T06:24:09;15.77;;;8.45;;
58581;SDS011;44361;51.476;5.700;2023-08-31T06:26:37;11.88;;;7.55;;
58581;SDS011;44361;51.476;5.700;2023-08-31T06:29:03;12.55;;;8.02;;
58581;SDS011;44361;51.476;5.700;2023-08-31T06:31:29;19.80;;;7.45;;
58581;SDS011;44361;51.476;5.700;2023-08-31T06:33:55;11.40;;;6.13;;
58581;SDS011;44361;51.476;5.700;2023-08-31T06:36:20;11.50;;;6.38;;
58581;SDS011;44361;51.476;5.700;2023-08-31T06:38:46;12.57;;;6.22;;
58581;SDS011;44361;51.476;5.700;2023-08-31T06:41:11;13.13;;;5.95;;
58581;SDS011;44361;51.476;5.700;2023-08-31T06:43:37;11.48;;;5.28;;
58581;SDS011;44361;51.476;5.700;2023-08-31T06:46:02;10.80;;;5.75;;
58581;SDS011;44361;51.476;5.700;2023-08-31T06:48:28;10.20;;;6.00;;
58581;SDS011;44361;51.476;5.700;2023-08-31T06:50:53;9.00;;;5.70;;
58581;SDS011;44361;51.476;5.700;2023-08-31T06:53:19;6.65;;;5.20;;
58581;SDS011;44361;51.476;5.700;2023-08-31T06:55:44;9.70;;;5.53;;
58581;SDS011;44361;51.476;5.700;2023-08-31T06:58:10;9.30;;;4.75;;
58581;SDS011;44361;51.476;5.700;2023-08-31T07:00:35;11.88;;;5.03;;
58581;SDS011;44361;51.476;5.700;2023-08-31T07:03:01;10.23;;;5.47;;
58581;SDS011;44361;51.476;5.700;2023-08-31T07:05:27;14.25;;;5.03;;
58581;SDS011;44361;51.476;5.700;2023-08-31T07:07:54;10.40;;;4.75;;
58581;SDS011;44361;51.476;5.700;2023-08-31T07:10:20;14.60;;;5.00;;
58581;SDS011;44361;51.476;5.700;2023-08-31T07:12:46;13.10;;;5.43;;
58581;SDS011;44361;51.476;5.700;2023-08-31T07:15:12;11.68;;;5.07;;
58581;SDS011;44361;51.476;5.700;2023-08-31T07:17:37;10.63;;;4.35;;
58581;SDS011;44361;51.476;5.700;2023-08-31T07:20:03;7.05;;;4.43;;
58581;SDS011;44361;51.476;5.700;2023-08-31T07:22:33;11.88;;;4.75;;
58581;SDS011;44361;51.476;5.700;2023-08-31T07:24:59;11.85;;;4.40;;
58581;SDS011;44361;51.476;5.700;2023-08-31T07:27:25;6.95;;;4.22;;
58581;SDS011;44361;51.476;5.700;2023-08-31T07:29:50;8.38;;;4.00;;
58581;SDS011;44361;51.476;5.700;2023-08-31T07:32:16;10.57;;;4.38;;
58581;SDS011;44361;51.476;5.700;2023-08-31T07:34:41;7.07;;;4.50;;
58581;SDS011;44361;51.476;5.700;2023-08-31T07:37:07;5.55;;;3.78;;
58581;SDS011;44361;51.476;5.700;2023-08-31T07:39:32;9.02;;;3.90;;
58581;SDS011;44361;51.476;5.700;2023-08-31T07:41:58;9.38;;;3.92;;
58581;SDS011;44361;51.476;5.700;2023-08-31T07:44:24;13.20;;;4.07;;
58581;SDS011;44361;51.476;5.700;2023-08-31T07:46:49;6.80;;;3.80;;
58581;SDS011;44361;51.476;5.700;2023-08-31T07:49:15;8.18;;;3.85;;
58581;SDS011;44361;51.476;5.700;2023-08-31T07:51:41;9.63;;;3.53;;
58581;SDS011;44361;51.476;5.700;2023-08-31T07:54:06;6.53;;;3.45;;
58581;SDS011;44361;51.476;5.700;2023-08-31T07:56:32;11.02;;;3.30;;
58581;SDS011;44361;51.476;5.700;2023-08-31T07:58:58;9.45;;;3.05;;
58581;SDS011;44361;51.476;5.700;2023-08-31T08:01:23;6.78;;;3.35;;
58581;SDS011;44361;51.476;5.700;2023-08-31T08:03:49;7.80;;;3.45;;
58581;SDS011;44361;51.476;5.700;2023-08-31T08:06:14;6.32;;;3.47;;
58581;SDS011;44361;51.476;5.700;2023-08-31T08:08:40;8.45;;;3.50;;
58581;SDS011;44361;51.476;5.700;2023-08-31T08:11:06;7.15;;;3.47;;
58581;SDS011;44361;51.476;5.700;2023-08-31T08:13:31;8.90;;;3.47;;
58581;SDS011;44361;51.476;5.700;2023-08-31T08:15:57;6.30;;;3.20;;
58581;SDS011;44361;51.476;5.700;2023-08-31T08:18:22;10.15;;;3.10;;
58581;SDS011;44361;51.476;5.700;2023-08-31T08:20:48;9.25;;;3.55;;
58581;SDS011;44361;51.476;5.700;2023-08-31T08:23:16;11.30;;;2.95;;
58581;SDS011;44361;51.476;5.700;2023-08-31T08:25:42;7.80;;;3.30;;
58581;SDS011;44361;51.476;5.700;2023-08-31T08:28:08;8.93;;;2.65;;
58581;SDS011;44361;51.476;5.700;2023-08-31T08:30:33;8.77;;;3.03;;
58581;SDS011;44361;51.476;5.700;2023-08-31T08:32:59;6.63;;;3.00;;
58581;SDS011;44361;51.476;5.700;2023-08-31T08:35:24;6.60;;;2.72;;
58581;SDS011;44361;51.476;5.700;2023-08-31T08:37:51;5.80;;;2.85;;
58581;SDS011;44361;51.476;5.700;2023-08-31T08:40:18;11.70;;;3.28;;
58581;SDS011;44361;51.476;5.700;2023-08-31T08:42:44;10.05;;;3.28;;
58581;SDS011;44361;51.476;5.700;2023-08-31T08:45:12;7.95;;;3.38;;
58581;SDS011;44361;51.476;5.700;2023-08-31T08:47:40;12.35;;;3.85;;
58581;SDS011;44361;51.476;5.700;2023-08-31T08:50:07;6.43;;;3.33;;
58581;SDS011;44361;51.476;5.700;2023-08-31T08:52:33;6.93;;;3.03;;
58581;SDS011;44361;51.476;5.700;2023-08-31T08:55:00;11.77;;;3.67;;
58581;SDS011;44361;51.476;5.700;2023-08-31T08:57:26;6.05;;;3.13;;
58581;SDS011;44361;51.476;5.700;2023-08-31T08:59:51;6.90;;;3.15;;
58581;SDS011;44361;51.476;5.700;2023-08-31T09:02:17;6.32;;;2.83;;
58581;SDS011;44361;51.476;5.700;2023-08-31T09:04:43;6.22;;;2.95;;
58581;SDS011;44361;51.476;5.700;2023-08-31T09:07:08;10.60;;;4.00;;
58581;SDS011;44361;51.476;5.700;2023-08-31T09:09:47;8.95;;;3.97;;
58581;SDS011;44361;51.476;5.700;2023-08-31T09:12:14;8.23;;;3.65;;
58581;SDS011;44361;51.476;5.700;2023-08-31T09:14:40;6.68;;;3.53;;
58581;SDS011;44361;51.476;5.700;2023-08-31T09:17:05;8.23;;;3.58;;
58581;SDS011;44361;51.476;5.700;2023-08-31T09:19:31;5.65;;;3.20;;
58581;SDS011;44361;51.476;5.700;2023-08-31T09:21:56;7.45;;;3.28;;
58581;SDS011;44361;51.476;5.700;2023-08-31T09:24:22;5.88;;;2.60;;
58581;SDS011;44361;51.476;5.700;2023-08-31T09:26:55;6.18;;;2.75;;
58581;SDS011;44361;51.476;5.700;2023-08-31T09:29:22;6.20;;;3.28;;
58581;SDS011;44361;51.476;5.700;2023-08-31T09:31:48;6.43;;;2.53;;
58581;SDS011;44361;51.476;5.700;2023-08-31T09:34:14;6.50;;;2.65;;
58581;SDS011;44361;51.476;5.700;2023-08-31T09:36:39;7.07;;;2.92;;
58581;SDS011;44361;51.476;5.700;2023-08-31T09:39:05;5.18;;;2.40;;
58581;SDS011;44361;51.476;5.700;2023-08-31T09:41:31;9.05;;;2.30;;
58581;SDS011;44361;51.476;5.700;2023-08-31T09:46:54;5.13;;;2.30;;
58581;SDS011;44361;51.476;5.700;2023-08-31T09:49:20;4.30;;;2.20;;
58581;SDS011;44361;51.476;5.700;2023-08-31T09:51:48;8.02;;;2.80;;
58581;SDS011;44361;51.476;5.700;2023-08-31T09:54:18;6.38;;;2.13;;
58581;SDS011;44361;51.476;5.700;2023-08-31T09:56:47;5.45;;;1.70;;
58581;SDS011;44361;51.476;5.700;2023-08-31T09:59:14;6.80;;;2.08;;
58581;SDS011;44361;51.476;5.700;2023-08-31T10:01:41;4.60;;;1.65;;
58581;SDS011;44361;51.476;5.700;2023-08-31T10:04:07;4.00;;;2.20;;
58581;SDS011;44361;51.476;5.700;2023-08-31T10:06:34;6.00;;;2.42;;
58581;SDS011;44361;51.476;5.700;2023-08-31T10:09:03;5.47;;;2.63;;
58581;SDS011;44361;51.476;5.700;2023-08-31T10:11:29;5.32;;;2.28;;
58581;SDS011;44361;51.476;5.700;2023-08-31T10:13:56;4.90;;;2.40;;
58581;SDS011;44361;51.476;5.700;2023-08-31T10:16:26;5.10;;;2.20;;
58581;SDS011;44361;51.476;5.700;2023-08-31T10:18:55;9.38;;;2.58;;
58581;SDS011;44361;51.476;5.700;2023-08-31T10:21:21;6.55;;;2.70;;
58581;SDS011;44361;51.476;5.700;2023-08-31T10:23:48;7.43;;;2.10;;
58581;SDS011;44361;51.476;5.700;2023-08-31T10:26:26;6.93;;;2.22;;
58581;SDS011;44361;51.476;5.700;2023-08-31T10:28:54;4.78;;;1.73;;
58581;SDS011;44361;51.476;5.700;2023-08-31T10:31:20;4.00;;;1.77;;
58581;SDS011;44361;51.476;5.700;2023-08-31T10:34:02;6.85;;;1.85;;
58581;SDS011;44361;51.476;5.700;2023-08-31T10:36:39;6.78;;;1.75;;
58581;SDS011;44361;51.476;5.700;2023-08-31T10:39:12;8.40;;;2.92;;
58581;SDS011;44361;51.476;5.700;2023-08-31T10:41:44;2.88;;;1.60;;
58581;SDS011;44361;51.476;5.700;2023-08-31T10:46:50;3.83;;;1.60;;
58581;SDS011;44361;51.476;5.700;2023-08-31T10:49:18;7.75;;;2.10;;
58581;SDS011;44361;51.476;5.700;2023-08-31T10:51:54;4.10;;;1.40;;
58581;SDS011;44361;51.476;5.700;2023-08-31T10:54:25;7.47;;;1.58;;
58581;SDS011;44361;51.476;5.700;2023-08-31T10:59:43;6.55;;;1.50;;
58581;SDS011;44361;51.476;5.700;2023-08-31T11:05:01;1.75;;;1.00;;
58581;SDS011;44361;51.476;5.700;2023-08-31T11:07:34;7.63;;;2.22;;
58581;SDS011;44361;51.476;5.700;2023-08-31T11:10:07;4.57;;;1.17;;
58581;SDS011;44361;51.476;5.700;2023-08-31T11:12:37;3.20;;;1.23;;
58581;SDS011;44361;51.476;5.700;2023-08-31T11:15:04;3.88;;;1.13;;
58581;SDS011;44361;51.476;5.700;2023-08-31T11:17:31;6.03;;;1.35;;
58581;SDS011;44361;51.476;5.700;2023-08-31T11:20:00;4.28;;;1.30;;
58581;SDS011;44361;51.476;5.700;2023-08-31T11:22:30;8.52;;;1.38;;
58581;SDS011;44361;51.476;5.700;2023-08-31T11:24:56;6.28;;;1.27;;
58581;SDS011;44361;51.476;5.700;2023-08-31T11:27:22;6.20;;;1.48;;
58581;SDS011;44361;51.476;5.700;2023-08-31T11:29:47;4.65;;;1.48;;
58581;SDS011;44361;51.476;5.700;2023-08-31T11:32:13;6.43;;;1.63;;
58581;SDS011;44361;51.476;5.700;2023-08-31T11:34:43;5.43;;;1.67;;
58581;SDS011;44361;51.476;5.700;2023-08-31T11:37:11;4.47;;;1.27;;
58581;SDS011;44361;51.476;5.700;2023-08-31T11:39:40;4.55;;;1.88;;
58581;SDS011;44361;51.476;5.700;2023-08-31T11:42:26;4.85;;;1.65;;
58581;SDS011;44361;51.476;5.700;2023-08-31T11:44:51;4.82;;;1.20;;
58581;SDS011;44361;51.476;5.700;2023-08-31T11:47:18;7.45;;;1.58;;
58581;SDS011;44361;51.476;5.700;2023-08-31T11:49:45;2.45;;;1.45;;
58581;SDS011;44361;51.476;5.700;2023-08-31T11:52:11;4.43;;;1.30;;
58581;SDS011;44361;51.476;5.700;2023-08-31T11:54:38;4.60;;;1.52;;
58581;SDS011;44361;51.476;5.700;2023-08-31T11:57:07;2.75;;;1.25;;
58581;SDS011;44361;51.476;5.700;2023-08-31T11:59:35;4.45;;;1.40;;
58581;SDS011;44361;51.476;5.700;2023-08-31T12:02:01;7.20;;;1.30;;
58581;SDS011;44361;51.476;5.700;2023-08-31T12:04:30;6.85;;;1.85;;
58581;SDS011;44361;51.476;5.700;2023-08-31T12:07:00;3.17;;;1.58;;
58581;SDS011;44361;51.476;5.700;2023-08-31T12:09:31;4.65;;;1.65;;
58581;SDS011;44361;51.476;5.700;2023-08-31T12:11:57;5.40;;;1.60;;
58581;SDS011;44361;51.476;5.700;2023-08-31T12:14:23;4.05;;;1.60;;
58581;SDS011;44361;51.476;5.700;2023-08-31T12:16:50;5.07;;;1.15;;
58581;SDS011;44361;51.476;5.700;2023-08-31T12:19:16;4.30;;;1.33;;
58581;SDS011;44361;51.476;5.700;2023-08-31T12:21:43;6.88;;;1.50;;
58581;SDS011;44361;51.476;5.700;2023-08-31T12:24:10;4.15;;;1.48;;
58581;SDS011;44361;51.476;5.700;2023-08-31T12:26:36;4.43;;;1.45;;
58581;SDS011;44361;51.476;5.700;2023-08-31T12:29:02;4.65;;;0.93;;
58581;SDS011;44361;51.476;5.700;2023-08-31T12:31:31;4.38;;;1.48;;
58581;SDS011;44361;51.476;5.700;2023-08-31T12:33:59;2.22;;;1.10;;
58581;SDS011;44361;51.476;5.700;2023-08-31T12:36:25;4.05;;;1.30;;
58581;SDS011;44361;51.476;5.700;2023-08-31T12:38:51;5.05;;;1.60;;
58581;SDS011;44361;51.476;5.700;2023-08-31T12:41:17;4.57;;;1.48;;
58581;SDS011;44361;51.476;5.700;2023-08-31T12:43:44;3.95;;;1.67;;
58581;SDS011;44361;51.476;5.700;2023-08-31T12:46:10;4.43;;;1.83;;
58581;SDS011;44361;51.476;5.700;2023-08-31T12:48:38;5.53;;;2.50;;
58581;SDS011;44361;51.476;5.700;2023-08-31T12:51:04;7.57;;;2.72;;
58581;SDS011;44361;51.476;5.700;2023-08-31T12:53:29;4.00;;;2.40;;
58581;SDS011;44361;51.476;5.700;2023-08-31T12:55:55;4.45;;;2.78;;
58581;SDS011;44361;51.476;5.700;2023-08-31T12:58:20;7.72;;;3.13;;
58581;SDS011;44361;51.476;5.700;2023-08-31T13:00:49;5.78;;;3.13;;
58581;SDS011;44361;51.476;5.700;2023-08-31T13:03:18;6.93;;;3.58;;
58581;SDS011;44361;51.476;5.700;2023-08-31T13:05:44;8.00;;;3.75;;
58581;SDS011;44361;51.476;5.700;2023-08-31T13:08:10;10.13;;;4.35;;
58581;SDS011;44361;51.476;5.700;2023-08-31T13:10:35;11.90;;;4.50;;
58581;SDS011;44361;51.476;5.700;2023-08-31T13:13:01;7.85;;;4.88;;
58581;SDS011;44361;51.476;5.700;2023-08-31T13:15:27;11.63;;;5.78;;
58581;SDS011;44361;51.476;5.700;2023-08-31T13:17:53;10.68;;;5.70;;
58581;SDS011;44361;51.476;5.700;2023-08-31T13:20:18;10.45;;;5.80;;
58581;SDS011;44361;51.476;5.700;2023-08-31T13:22:44;16.23;;;6.50;;
58581;SDS011;44361;51.476;5.700;2023-08-31T13:25:09;9.55;;;6.00;;
58581;SDS011;44361;51.476;5.700;2023-08-31T13:27:36;16.27;;;6.95;;
58581;SDS011;44361;51.476;5.700;2023-08-31T13:30:02;12.73;;;6.60;;
58581;SDS011;44361;51.476;5.700;2023-08-31T13:32:30;10.10;;;6.38;;
58581;SDS011;44361;51.476;5.700;2023-08-31T13:34:57;10.68;;;7.03;;
58581;SDS011;44361;51.476;5.700;2023-08-31T13:37:22;10.15;;;6.25;;
58581;SDS011;44361;51.476;5.700;2023-08-31T13:39:49;9.63;;;6.43;;
58581;SDS011;44361;51.476;5.700;2023-08-31T13:42:16;9.95;;;7.13;;
58581;SDS011;44361;51.476;5.700;2023-08-31T13:44:42;12.80;;;7.72;;
58581;SDS011;44361;51.476;5.700;2023-08-31T13:47:07;11.65;;;7.53;;
58581;SDS011;44361;51.476;5.700;2023-08-31T13:49:33;15.55;;;8.45;;
58581;SDS011;44361;51.476;5.700;2023-08-31T13:51:59;12.95;;;8.77;;
58581;SDS011;44361;51.476;5.700;2023-08-31T13:54:25;12.18;;;8.00;;
58581;SDS011;44361;51.476;5.700;2023-08-31T13:56:50;11.48;;;8.32;;
58581;SDS011;44361;51.476;5.700;2023-08-31T13:59:16;15.95;;;9.30;;
58581;SDS011;44361;51.476;5.700;2023-08-31T14:01:42;18.35;;;9.18;;
58581;SDS011;44361;51.476;5.700;2023-08-31T14:04:07;16.38;;;9.40;;
58581;SDS011;44361;51.476;5.700;2023-08-31T14:06:33;17.67;;;10.18;;
58581;SDS011;44361;51.476;5.700;2023-08-31T14:08:58;16.33;;;9.95;;
58581;SDS011;44361;51.476;5.700;2023-08-31T14:11:24;17.65;;;9.50;;
58581;SDS011;44361;51.476;5.700;2023-08-31T14:13:50;15.13;;;8.23;;
58581;SDS011;44361;51.476;5.700;2023-08-31T14:16:17;13.02;;;8.15;;
58581;SDS011;44361;51.476;5.700;2023-08-31T14:18:43;13.15;;;7.18;;
58581;SDS011;44361;51.476;5.700;2023-08-31T14:21:14;12.45;;;6.00;;
58581;SDS011;44361;51.476;5.700;2023-08-31T14:23:40;7.38;;;5.18;;
58581;SDS011;44361;51.476;5.700;2023-08-31T14:26:06;7.43;;;5.07;;
58581;SDS011;44361;51.476;5.700;2023-08-31T14:28:34;8.30;;;4.60;;
58581;SDS011;44361;51.476;5.700;2023-08-31T14:31:03;6.60;;;4.38;;
58581;SDS011;44361;51.476;5.700;2023-08-31T14:33:32;8.95;;;5.10;;
58581;SDS011;44361;51.476;5.700;2023-08-31T14:35:58;5.30;;;4.10;;
58581;SDS011;44361;51.476;5.700;2023-08-31T14:38:23;7.70;;;4.57;;
58581;SDS011;44361;51.476;5.700;2023-08-31T14:40:50;8.38;;;4.20;;
58581;SDS011;44361;51.476;5.700;2023-08-31T14:43:16;9.77;;;4.13;;
58581;SDS011;44361;51.476;5.700;2023-08-31T14:45:42;7.13;;;3.35;;
58581;SDS011;44361;51.476;5.700;2023-08-31T14:48:08;6.97;;;3.05;;
58581;SDS011;44361;51.476;5.700;2023-08-31T14:50:34;8.55;;;3.53;;
58581;SDS011;44361;51.476;5.700;2023-08-31T14:52:59;6.97;;;3.97;;